sensor_id;sensor_type;location;lat;lon;timestamp;P1;durP1;ratioP1;P2;durP2;ratioP2
82806;SDS011;72563;44.816;20.484;2024-03-29T00:01:10;5.60;;;1.40;;
82806;SDS011;72563;44.816;20.484;2024-03-29T00:03:36;3.92;;;1.40;;
82806;SDS011;72563;44.816;20.484;2024-03-29T00:06:02;3.97;;;1.40;;
82806;SDS011;72563;44.816;20.484;2024-03-29T00:08:27;4.95;;;1.30;;
82806;SDS011;72563;44.816;20.484;2024-03-29T00:10:53;5.35;;;1.63;;
82806;SDS011;72563;44.816;20.484;2024-03-29T00:13:19;4.82;;;1.23;;
82806;SDS011;72563;44.816;20.484;2024-03-29T00:15:47;5.00;;;1.30;;
82806;SDS011;72563;44.816;20.484;2024-03-29T00:18:13;4.78;;;1.35;;
82806;SDS011;72563;44.816;20.484;2024-03-29T00:20:38;6.32;;;1.80;;
82806;SDS011;72563;44.816;20.484;2024-03-29T00:23:04;6.07;;;1.63;;
82806;SDS011;72563;44.816;20.484;2024-03-29T00:25:30;5.70;;;1.55;;
82806;SDS011;72563;44.816;20.484;2024-03-29T00:27:55;3.75;;;1.08;;
82806;SDS011;72563;44.816;20.484;2024-03-29T00:30:21;4.38;;;0.98;;
82806;SDS011;72563;44.816;20.484;2024-03-29T00:32:47;4.97;;;1.60;;
82806;SDS011;72563;44.816;20.484;2024-03-29T00:35:12;4.65;;;1.20;;
82806;SDS011;72563;44.816;20.484;2024-03-29T00:37:39;4.63;;;1.52;;
82806;SDS011;72563;44.816;20.484;2024-03-29T00:40:05;7.72;;;1.80;;
82806;SDS011;72563;44.816;20.484;2024-03-29T00:42:31;3.70;;;1.10;;
82806;SDS011;72563;44.816;20.484;2024-03-29T00:44:57;4.43;;;1.30;;
82806;SDS011;72563;44.816;20.484;2024-03-29T00:47:22;6.45;;;1.50;;
82806;SDS011;72563;44.816;20.484;2024-03-29T00:49:48;4.15;;;1.20;;
82806;SDS011;72563;44.816;20.484;2024-03-29T00:52:13;4.15;;;1.20;;
82806;SDS011;72563;44.816;20.484;2024-03-29T00:54:39;5.75;;;1.73;;
82806;SDS011;72563;44.816;20.484;2024-03-29T00:57:05;5.20;;;1.17;;
82806;SDS011;72563;44.816;20.484;2024-03-29T00:59:32;3.45;;;1.08;;
82806;SDS011;72563;44.816;20.484;2024-03-29T01:01:57;5.90;;;1.30;;
82806;SDS011;72563;44.816;20.484;2024-03-29T01:04:23;3.30;;;0.98;;
82806;SDS011;72563;44.816;20.484;2024-03-29T01:06:48;4.57;;;1.10;;
82806;SDS011;72563;44.816;20.484;2024-03-29T01:09:15;7.72;;;1.27;;
82806;SDS011;72563;44.816;20.484;2024-03-29T01:11:41;6.78;;;1.40;;
82806;SDS011;72563;44.816;20.484;2024-03-29T01:14:07;5.10;;;1.30;;
82806;SDS011;72563;44.816;20.484;2024-03-29T01:16:34;5.88;;;1.20;;
82806;SDS011;72563;44.816;20.484;2024-03-29T01:18:59;7.50;;;1.40;;
82806;SDS011;72563;44.816;20.484;2024-03-29T01:21:26;6.95;;;1.50;;
82806;SDS011;72563;44.816;20.484;2024-03-29T01:23:52;5.57;;;1.48;;
82806;SDS011;72563;44.816;20.484;2024-03-29T01:26:18;5.90;;;1.58;;
82806;SDS011;72563;44.816;20.484;2024-03-29T01:28:43;5.47;;;1.48;;
82806;SDS011;72563;44.816;20.484;2024-03-29T01:31:09;8.32;;;1.60;;
82806;SDS011;72563;44.816;20.484;2024-03-29T01:33:35;3.92;;;1.23;;
82806;SDS011;72563;44.816;20.484;2024-03-29T01:36:05;5.30;;;1.20;;
82806;SDS011;72563;44.816;20.484;2024-03-29T01:38:34;7.05;;;1.40;;
82806;SDS011;72563;44.816;20.484;2024-03-29T01:41:00;5.03;;;1.38;;
82806;SDS011;72563;44.816;20.484;2024-03-29T01:43:27;6.97;;;1.10;;
82806;SDS011;72563;44.816;20.484;2024-03-29T01:45:54;5.78;;;1.20;;
82806;SDS011;72563;44.816;20.484;2024-03-29T01:50:51;6.78;;;1.50;;
82806;SDS011;72563;44.816;20.484;2024-03-29T01:53:19;3.55;;;1.10;;
82806;SDS011;72563;44.816;20.484;2024-03-29T01:55:46;4.82;;;1.42;;
82806;SDS011;72563;44.816;20.484;2024-03-29T01:58:12;5.25;;;1.48;;
82806;SDS011;72563;44.816;20.484;2024-03-29T02:00:39;6.68;;;1.55;;
82806;SDS011;72563;44.816;20.484;2024-03-29T02:03:09;8.32;;;1.50;;
82806;SDS011;72563;44.816;20.484;2024-03-29T02:05:38;4.85;;;1.20;;
82806;SDS011;72563;44.816;20.484;2024-03-29T02:08:06;4.18;;;1.45;;
82806;SDS011;72563;44.816;20.484;2024-03-29T02:10:33;5.45;;;1.42;;
82806;SDS011;72563;44.816;20.484;2024-03-29T02:12:59;6.82;;;1.55;;
82806;SDS011;72563;44.816;20.484;2024-03-29T02:15:25;6.63;;;1.60;;
82806;SDS011;72563;44.816;20.484;2024-03-29T02:17:51;5.82;;;1.58;;
82806;SDS011;72563;44.816;20.484;2024-03-29T02:20:16;4.18;;;1.20;;
82806;SDS011;72563;44.816;20.484;2024-03-29T02:22:46;6.90;;;1.27;;
82806;SDS011;72563;44.816;20.484;2024-03-29T02:25:20;4.40;;;1.52;;
82806;SDS011;72563;44.816;20.484;2024-03-29T02:27:46;7.47;;;1.85;;
82806;SDS011;72563;44.816;20.484;2024-03-29T02:30:16;4.63;;;1.27;;
82806;SDS011;72563;44.816;20.484;2024-03-29T02:32:42;3.83;;;1.08;;
82806;SDS011;72563;44.816;20.484;2024-03-29T02:35:08;8.75;;;1.98;;
82806;SDS011;72563;44.816;20.484;2024-03-29T02:37:37;7.22;;;1.73;;
82806;SDS011;72563;44.816;20.484;2024-03-29T02:40:03;5.70;;;1.20;;
82806;SDS011;72563;44.816;20.484;2024-03-29T02:47:23;6.47;;;1.23;;
82806;SDS011;72563;44.816;20.484;2024-03-29T02:49:48;7.70;;;1.10;;
82806;SDS011;72563;44.816;20.484;2024-03-29T02:52:15;6.50;;;1.58;;
82806;SDS011;72563;44.816;20.484;2024-03-29T02:54:41;3.72;;;1.27;;
82806;SDS011;72563;44.816;20.484;2024-03-29T02:57:07;6.00;;;1.15;;
82806;SDS011;72563;44.816;20.484;2024-03-29T02:59:33;9.68;;;1.20;;
82806;SDS011;72563;44.816;20.484;2024-03-29T03:01:59;4.85;;;1.40;;
82806;SDS011;72563;44.816;20.484;2024-03-29T03:04:25;4.53;;;1.75;;
82806;SDS011;72563;44.816;20.484;2024-03-29T03:06:52;3.97;;;1.00;;
82806;SDS011;72563;44.816;20.484;2024-03-29T03:09:21;3.55;;;1.00;;
82806;SDS011;72563;44.816;20.484;2024-03-29T03:12:05;1.98;;;0.80;;
82806;SDS011;72563;44.816;20.484;2024-03-29T03:14:31;6.40;;;0.80;;
82806;SDS011;72563;44.816;20.484;2024-03-29T03:16:57;1.50;;;0.70;;
82806;SDS011;72563;44.816;20.484;2024-03-29T03:19:22;2.20;;;0.60;;
82806;SDS011;72563;44.816;20.484;2024-03-29T03:21:50;0.95;;;0.40;;
82806;SDS011;72563;44.816;20.484;2024-03-29T03:24:15;1.38;;;0.50;;
82806;SDS011;72563;44.816;20.484;2024-03-29T03:26:41;0.45;;;0.30;;
82806;SDS011;72563;44.816;20.484;2024-03-29T03:29:07;2.15;;;0.47;;
82806;SDS011;72563;44.816;20.484;2024-03-29T03:31:35;1.52;;;0.50;;
82806;SDS011;72563;44.816;20.484;2024-03-29T03:34:02;1.33;;;0.50;;
82806;SDS011;72563;44.816;20.484;2024-03-29T03:36:27;1.35;;;0.50;;
82806;SDS011;72563;44.816;20.484;2024-03-29T03:38:53;0.75;;;0.60;;
82806;SDS011;72563;44.816;20.484;2024-03-29T03:41:19;1.55;;;0.50;;
82806;SDS011;72563;44.816;20.484;2024-03-29T03:43:44;3.03;;;0.70;;
82806;SDS011;72563;44.816;20.484;2024-03-29T03:46:10;1.08;;;0.60;;
82806;SDS011;72563;44.816;20.484;2024-03-29T03:48:36;1.42;;;0.50;;
82806;SDS011;72563;44.816;20.484;2024-03-29T03:51:01;0.63;;;0.43;;
82806;SDS011;72563;44.816;20.484;2024-03-29T03:53:27;1.13;;;0.40;;
82806;SDS011;72563;44.816;20.484;2024-03-29T03:55:53;0.93;;;0.50;;
82806;SDS011;72563;44.816;20.484;2024-03-29T03:58:18;1.27;;;0.30;;
82806;SDS011;72563;44.816;20.484;2024-03-29T04:00:45;3.67;;;0.82;;
82806;SDS011;72563;44.816;20.484;2024-03-29T04:03:11;1.05;;;0.70;;
82806;SDS011;72563;44.816;20.484;2024-03-29T04:05:36;1.55;;;0.60;;
82806;SDS011;72563;44.816;20.484;2024-03-29T04:08:02;1.95;;;0.70;;
82806;SDS011;72563;44.816;20.484;2024-03-29T04:10:29;1.85;;;0.70;;
82806;SDS011;72563;44.816;20.484;2024-03-29T04:12:54;3.55;;;1.00;;
82806;SDS011;72563;44.816;20.484;2024-03-29T04:15:20;1.77;;;0.70;;
82806;SDS011;72563;44.816;20.484;2024-03-29T04:17:46;3.33;;;0.80;;
82806;SDS011;72563;44.816;20.484;2024-03-29T04:20:11;1.40;;;0.75;;
82806;SDS011;72563;44.816;20.484;2024-03-29T04:22:38;1.05;;;0.47;;
82806;SDS011;72563;44.816;20.484;2024-03-29T04:25:04;2.45;;;0.63;;
82806;SDS011;72563;44.816;20.484;2024-03-29T04:27:29;2.25;;;0.80;;
82806;SDS011;72563;44.816;20.484;2024-03-29T04:29:55;1.05;;;0.60;;
82806;SDS011;72563;44.816;20.484;2024-03-29T04:32:21;2.45;;;0.90;;
82806;SDS011;72563;44.816;20.484;2024-03-29T04:34:47;4.03;;;0.90;;
82806;SDS011;72563;44.816;20.484;2024-03-29T04:37:13;2.30;;;0.80;;
82806;SDS011;72563;44.816;20.484;2024-03-29T04:39:41;3.95;;;1.10;;
82806;SDS011;72563;44.816;20.484;2024-03-29T04:42:08;4.07;;;1.10;;
82806;SDS011;72563;44.816;20.484;2024-03-29T04:44:33;4.80;;;0.63;;
82806;SDS011;72563;44.816;20.484;2024-03-29T04:47:00;1.92;;;0.93;;
82806;SDS011;72563;44.816;20.484;2024-03-29T04:49:28;1.70;;;0.60;;
82806;SDS011;72563;44.816;20.484;2024-03-29T04:52:00;2.70;;;0.60;;
82806;SDS011;72563;44.816;20.484;2024-03-29T04:54:26;1.08;;;0.40;;
82806;SDS011;72563;44.816;20.484;2024-03-29T04:56:53;0.82;;;0.40;;
82806;SDS011;72563;44.816;20.484;2024-03-29T04:59:19;3.50;;;0.73;;
82806;SDS011;72563;44.816;20.484;2024-03-29T05:01:46;2.65;;;0.57;;
82806;SDS011;72563;44.816;20.484;2024-03-29T05:04:20;1.92;;;1.02;;
82806;SDS011;72563;44.816;20.484;2024-03-29T05:06:55;3.10;;;0.82;;
82806;SDS011;72563;44.816;20.484;2024-03-29T05:09:22;3.03;;;0.73;;
82806;SDS011;72563;44.816;20.484;2024-03-29T05:11:50;2.53;;;0.80;;
82806;SDS011;72563;44.816;20.484;2024-03-29T05:14:17;1.60;;;0.70;;
82806;SDS011;72563;44.816;20.484;2024-03-29T05:16:45;5.22;;;0.82;;
82806;SDS011;72563;44.816;20.484;2024-03-29T05:19:15;2.60;;;0.90;;
82806;SDS011;72563;44.816;20.484;2024-03-29T05:21:41;3.70;;;0.77;;
82806;SDS011;72563;44.816;20.484;2024-03-29T05:24:07;1.95;;;0.77;;
82806;SDS011;72563;44.816;20.484;2024-03-29T05:26:33;0.82;;;0.50;;
82806;SDS011;72563;44.816;20.484;2024-03-29T05:28:59;2.25;;;0.73;;
82806;SDS011;72563;44.816;20.484;2024-03-29T05:31:25;1.70;;;0.45;;
82806;SDS011;72563;44.816;20.484;2024-03-29T05:33:52;1.67;;;0.45;;
82806;SDS011;72563;44.816;20.484;2024-03-29T05:36:17;2.28;;;0.77;;
82806;SDS011;72563;44.816;20.484;2024-03-29T05:38:45;1.92;;;0.50;;
82806;SDS011;72563;44.816;20.484;2024-03-29T05:41:11;1.80;;;0.70;;
82806;SDS011;72563;44.816;20.484;2024-03-29T05:43:38;1.00;;;0.47;;
82806;SDS011;72563;44.816;20.484;2024-03-29T05:46:05;1.55;;;0.60;;
82806;SDS011;72563;44.816;20.484;2024-03-29T05:48:31;1.95;;;0.70;;
82806;SDS011;72563;44.816;20.484;2024-03-29T05:50:56;2.75;;;0.73;;
82806;SDS011;72563;44.816;20.484;2024-03-29T05:53:22;2.20;;;0.80;;
82806;SDS011;72563;44.816;20.484;2024-03-29T05:55:48;2.20;;;0.88;;
82806;SDS011;72563;44.816;20.484;2024-03-29T05:58:13;6.00;;;1.38;;
82806;SDS011;72563;44.816;20.484;2024-03-29T06:00:44;2.75;;;1.15;;
82806;SDS011;72563;44.816;20.484;2024-03-29T06:03:10;3.42;;;1.30;;
82806;SDS011;72563;44.816;20.484;2024-03-29T06:05:36;2.25;;;1.00;;
82806;SDS011;72563;44.816;20.484;2024-03-29T06:08:01;3.78;;;1.27;;
82806;SDS011;72563;44.816;20.484;2024-03-29T06:10:27;3.80;;;1.30;;
82806;SDS011;72563;44.816;20.484;2024-03-29T06:12:53;4.10;;;1.48;;
82806;SDS011;72563;44.816;20.484;2024-03-29T06:15:18;6.97;;;1.77;;
82806;SDS011;72563;44.816;20.484;2024-03-29T06:18:03;3.35;;;1.35;;
82806;SDS011;72563;44.816;20.484;2024-03-29T06:20:29;3.80;;;1.35;;
82806;SDS011;72563;44.816;20.484;2024-03-29T06:22:54;3.92;;;1.13;;
82806;SDS011;72563;44.816;20.484;2024-03-29T06:25:21;2.80;;;0.98;;
82806;SDS011;72563;44.816;20.484;2024-03-29T06:27:46;3.40;;;1.10;;
82806;SDS011;72563;44.816;20.484;2024-03-29T06:30:15;3.03;;;0.95;;
82806;SDS011;72563;44.816;20.484;2024-03-29T06:32:42;2.08;;;0.90;;
82806;SDS011;72563;44.816;20.484;2024-03-29T06:35:09;5.22;;;1.10;;
82806;SDS011;72563;44.816;20.484;2024-03-29T06:37:35;3.40;;;0.80;;
82806;SDS011;72563;44.816;20.484;2024-03-29T06:40:00;2.90;;;0.90;;
82806;SDS011;72563;44.816;20.484;2024-03-29T06:42:27;5.82;;;1.00;;
82806;SDS011;72563;44.816;20.484;2024-03-29T06:44:52;5.15;;;1.00;;
82806;SDS011;72563;44.816;20.484;2024-03-29T06:47:19;2.75;;;0.85;;
82806;SDS011;72563;44.816;20.484;2024-03-29T06:49:46;3.25;;;1.10;;
82806;SDS011;72563;44.816;20.484;2024-03-29T06:52:13;5.07;;;1.38;;
82806;SDS011;72563;44.816;20.484;2024-03-29T06:54:38;2.90;;;1.13;;
82806;SDS011;72563;44.816;20.484;2024-03-29T06:57:04;3.55;;;1.15;;
82806;SDS011;72563;44.816;20.484;2024-03-29T06:59:32;2.97;;;1.08;;
82806;SDS011;72563;44.816;20.484;2024-03-29T07:01:58;3.22;;;1.10;;
82806;SDS011;72563;44.816;20.484;2024-03-29T07:04:24;5.88;;;1.23;;
82806;SDS011;72563;44.816;20.484;2024-03-29T07:06:50;4.10;;;1.90;;
82806;SDS011;72563;44.816;20.484;2024-03-29T07:09:17;4.18;;;1.92;;
82806;SDS011;72563;44.816;20.484;2024-03-29T07:11:49;5.47;;;1.38;;
82806;SDS011;72563;44.816;20.484;2024-03-29T07:14:17;4.45;;;1.65;;
82806;SDS011;72563;44.816;20.484;2024-03-29T07:16:43;4.45;;;1.63;;
82806;SDS011;72563;44.816;20.484;2024-03-29T07:19:10;5.10;;;1.30;;
82806;SDS011;72563;44.816;20.484;2024-03-29T07:21:42;5.15;;;1.38;;
82806;SDS011;72563;44.816;20.484;2024-03-29T07:26:34;4.93;;;1.58;;
82806;SDS011;72563;44.816;20.484;2024-03-29T07:29:00;2.85;;;1.00;;
82806;SDS011;72563;44.816;20.484;2024-03-29T07:31:26;3.50;;;1.42;;
82806;SDS011;72563;44.816;20.484;2024-03-29T07:33:52;3.72;;;1.05;;
82806;SDS011;72563;44.816;20.484;2024-03-29T07:36:17;3.10;;;1.08;;
82806;SDS011;72563;44.816;20.484;2024-03-29T07:38:43;3.58;;;1.30;;
82806;SDS011;72563;44.816;20.484;2024-03-29T07:41:09;3.75;;;1.20;;
82806;SDS011;72563;44.816;20.484;2024-03-29T07:43:38;4.00;;;1.30;;
82806;SDS011;72563;44.816;20.484;2024-03-29T07:46:05;4.30;;;1.10;;
82806;SDS011;72563;44.816;20.484;2024-03-29T07:48:33;4.05;;;1.20;;
82806;SDS011;72563;44.816;20.484;2024-03-29T07:50:59;4.40;;;2.13;;
82806;SDS011;72563;44.816;20.484;2024-03-29T07:53:25;7.35;;;1.80;;
82806;SDS011;72563;44.816;20.484;2024-03-29T07:55:51;4.50;;;1.40;;
82806;SDS011;72563;44.816;20.484;2024-03-29T07:58:16;6.35;;;1.67;;
82806;SDS011;72563;44.816;20.484;2024-03-29T08:00:42;6.07;;;2.00;;
82806;SDS011;72563;44.816;20.484;2024-03-29T08:03:08;7.65;;;1.52;;
82806;SDS011;72563;44.816;20.484;2024-03-29T08:05:34;4.07;;;1.80;;
82806;SDS011;72563;44.816;20.484;2024-03-29T08:08:00;6.32;;;1.83;;
82806;SDS011;72563;44.816;20.484;2024-03-29T08:10:26;4.88;;;1.70;;
82806;SDS011;72563;44.816;20.484;2024-03-29T08:12:53;5.00;;;1.63;;
82806;SDS011;72563;44.816;20.484;2024-03-29T08:15:18;6.53;;;1.85;;
82806;SDS011;72563;44.816;20.484;2024-03-29T08:17:45;5.25;;;1.58;;
82806;SDS011;72563;44.816;20.484;2024-03-29T08:20:11;4.95;;;1.90;;
82806;SDS011;72563;44.816;20.484;2024-03-29T08:22:36;5.78;;;1.88;;
82806;SDS011;72563;44.816;20.484;2024-03-29T08:25:02;5.80;;;2.10;;
82806;SDS011;72563;44.816;20.484;2024-03-29T08:27:28;8.57;;;2.17;;
82806;SDS011;72563;44.816;20.484;2024-03-29T08:29:54;6.53;;;3.60;;
82806;SDS011;72563;44.816;20.484;2024-03-29T08:32:20;6.97;;;2.70;;
82806;SDS011;72563;44.816;20.484;2024-03-29T08:34:46;6.68;;;2.13;;
82806;SDS011;72563;44.816;20.484;2024-03-29T08:37:12;6.05;;;2.28;;
82806;SDS011;72563;44.816;20.484;2024-03-29T08:39:37;6.13;;;1.40;;
82806;SDS011;72563;44.816;20.484;2024-03-29T08:42:03;5.93;;;2.00;;
82806;SDS011;72563;44.816;20.484;2024-03-29T08:44:36;5.25;;;2.22;;
82806;SDS011;72563;44.816;20.484;2024-03-29T08:47:02;7.63;;;2.30;;
82806;SDS011;72563;44.816;20.484;2024-03-29T08:49:28;6.03;;;2.13;;
82806;SDS011;72563;44.816;20.484;2024-03-29T08:51:54;7.35;;;2.42;;
82806;SDS011;72563;44.816;20.484;2024-03-29T08:54:19;7.88;;;2.58;;
82806;SDS011;72563;44.816;20.484;2024-03-29T08:56:45;10.40;;;2.67;;
82806;SDS011;72563;44.816;20.484;2024-03-29T08:59:12;6.60;;;2.28;;
82806;SDS011;72563;44.816;20.484;2024-03-29T09:01:41;6.97;;;3.05;;
82806;SDS011;72563;44.816;20.484;2024-03-29T09:04:09;6.05;;;2.33;;
82806;SDS011;72563;44.816;20.484;2024-03-29T09:09:02;6.00;;;1.88;;
82806;SDS011;72563;44.816;20.484;2024-03-29T09:11:28;4.60;;;1.70;;
82806;SDS011;72563;44.816;20.484;2024-03-29T09:13:54;7.28;;;2.05;;
82806;SDS011;72563;44.816;20.484;2024-03-29T09:16:21;5.13;;;1.80;;
82806;SDS011;72563;44.816;20.484;2024-03-29T09:18:50;6.45;;;1.98;;
82806;SDS011;72563;44.816;20.484;2024-03-29T09:21:16;5.88;;;2.17;;
82806;SDS011;72563;44.816;20.484;2024-03-29T09:23:42;6.22;;;2.10;;
82806;SDS011;72563;44.816;20.484;2024-03-29T09:26:09;7.68;;;2.42;;
82806;SDS011;72563;44.816;20.484;2024-03-29T09:28:35;7.10;;;2.22;;
82806;SDS011;72563;44.816;20.484;2024-03-29T09:31:02;7.13;;;2.00;;
82806;SDS011;72563;44.816;20.484;2024-03-29T09:33:27;6.55;;;1.85;;
82806;SDS011;72563;44.816;20.484;2024-03-29T09:35:53;8.63;;;2.25;;
82806;SDS011;72563;44.816;20.484;2024-03-29T09:38:21;13.02;;;2.60;;
82806;SDS011;72563;44.816;20.484;2024-03-29T09:40:48;4.72;;;2.42;;
82806;SDS011;72563;44.816;20.484;2024-03-29T09:43:35;6.03;;;1.70;;
82806;SDS011;72563;44.816;20.484;2024-03-29T09:46:04;5.57;;;1.80;;
82806;SDS011;72563;44.816;20.484;2024-03-29T09:48:33;5.78;;;2.00;;
82806;SDS011;72563;44.816;20.484;2024-03-29T09:51:06;6.50;;;1.83;;
82806;SDS011;72563;44.816;20.484;2024-03-29T09:53:36;8.65;;;2.30;;
82806;SDS011;72563;44.816;20.484;2024-03-29T09:56:03;6.45;;;2.92;;
82806;SDS011;72563;44.816;20.484;2024-03-29T09:58:33;6.68;;;2.00;;
82806;SDS011;72563;44.816;20.484;2024-03-29T10:01:00;5.50;;;1.80;;
82806;SDS011;72563;44.816;20.484;2024-03-29T10:03:31;8.13;;;1.50;;
82806;SDS011;72563;44.816;20.484;2024-03-29T10:06:00;7.35;;;1.83;;
82806;SDS011;72563;44.816;20.484;2024-03-29T10:08:26;6.32;;;1.70;;
82806;SDS011;72563;44.816;20.484;2024-03-29T10:10:54;6.25;;;2.05;;
82806;SDS011;72563;44.816;20.484;2024-03-29T10:13:20;7.18;;;2.53;;
82806;SDS011;72563;44.816;20.484;2024-03-29T10:15:46;7.05;;;2.00;;
82806;SDS011;72563;44.816;20.484;2024-03-29T10:18:15;6.22;;;1.80;;
82806;SDS011;72563;44.816;20.484;2024-03-29T10:20:41;6.78;;;2.08;;
82806;SDS011;72563;44.816;20.484;2024-03-29T10:23:06;7.47;;;1.95;;
82806;SDS011;72563;44.816;20.484;2024-03-29T10:25:33;9.32;;;2.05;;
82806;SDS011;72563;44.816;20.484;2024-03-29T10:27:59;6.90;;;1.98;;
82806;SDS011;72563;44.816;20.484;2024-03-29T10:30:27;5.82;;;1.85;;
82806;SDS011;72563;44.816;20.484;2024-03-29T10:32:55;7.43;;;1.90;;
82806;SDS011;72563;44.816;20.484;2024-03-29T10:35:21;7.30;;;2.10;;
82806;SDS011;72563;44.816;20.484;2024-03-29T10:37:47;6.07;;;2.22;;
82806;SDS011;72563;44.816;20.484;2024-03-29T10:40:13;6.32;;;1.88;;
82806;SDS011;72563;44.816;20.484;2024-03-29T10:42:42;6.55;;;1.50;;
82806;SDS011;72563;44.816;20.484;2024-03-29T10:45:09;5.40;;;1.85;;
82806;SDS011;72563;44.816;20.484;2024-03-29T10:47:35;7.38;;;1.90;;
82806;SDS011;72563;44.816;20.484;2024-03-29T10:50:01;8.45;;;2.25;;
82806;SDS011;72563;44.816;20.484;2024-03-29T10:52:31;7.28;;;1.92;;
82806;SDS011;72563;44.816;20.484;2024-03-29T10:54:56;7.47;;;2.00;;
82806;SDS011;72563;44.816;20.484;2024-03-29T10:57:23;8.30;;;1.80;;
82806;SDS011;72563;44.816;20.484;2024-03-29T11:05:16;5.30;;;2.50;;
82806;SDS011;72563;44.816;20.484;2024-03-29T11:07:43;6.97;;;1.65;;
82806;SDS011;72563;44.816;20.484;2024-03-29T11:10:28;6.63;;;1.55;;
82806;SDS011;72563;44.816;20.484;2024-03-29T11:15:37;8.73;;;1.77;;
82806;SDS011;72563;44.816;20.484;2024-03-29T11:18:05;6.55;;;1.42;;
82806;SDS011;72563;44.816;20.484;2024-03-29T11:20:32;6.57;;;1.60;;
82806;SDS011;72563;44.816;20.484;2024-03-29T11:23:00;6.03;;;1.63;;
82806;SDS011;72563;44.816;20.484;2024-03-29T11:25:43;6.22;;;2.55;;
82806;SDS011;72563;44.816;20.484;2024-03-29T11:28:14;6.68;;;1.70;;
82806;SDS011;72563;44.816;20.484;2024-03-29T11:30:47;6.70;;;1.63;;
82806;SDS011;72563;44.816;20.484;2024-03-29T11:36:15;5.60;;;1.55;;
82806;SDS011;72563;44.816;20.484;2024-03-29T11:38:44;10.10;;;1.90;;
82806;SDS011;72563;44.816;20.484;2024-03-29T11:41:11;5.70;;;1.50;;
82806;SDS011;72563;44.816;20.484;2024-03-29T11:43:38;5.28;;;1.30;;
82806;SDS011;72563;44.816;20.484;2024-03-29T11:46:09;8.95;;;2.20;;
82806;SDS011;72563;44.816;20.484;2024-03-29T11:48:36;8.48;;;1.85;;
82806;SDS011;72563;44.816;20.484;2024-03-29T11:51:03;6.43;;;2.08;;
82806;SDS011;72563;44.816;20.484;2024-03-29T11:53:30;7.35;;;2.30;;
82806;SDS011;72563;44.816;20.484;2024-03-29T11:55:57;6.43;;;2.08;;
82806;SDS011;72563;44.816;20.484;2024-03-29T11:58:24;7.75;;;2.20;;
82806;SDS011;72563;44.816;20.484;2024-03-29T12:00:51;6.43;;;2.25;;
82806;SDS011;72563;44.816;20.484;2024-03-29T12:03:19;6.55;;;1.90;;
82806;SDS011;72563;44.816;20.484;2024-03-29T12:05:48;11.00;;;2.10;;
82806;SDS011;72563;44.816;20.484;2024-03-29T12:08:16;6.05;;;1.85;;
82806;SDS011;72563;44.816;20.484;2024-03-29T12:10:42;7.63;;;2.17;;
82806;SDS011;72563;44.816;20.484;2024-03-29T12:13:08;8.60;;;2.15;;
82806;SDS011;72563;44.816;20.484;2024-03-29T12:15:34;9.77;;;2.30;;
82806;SDS011;72563;44.816;20.484;2024-03-29T12:18:00;5.97;;;2.17;;
82806;SDS011;72563;44.816;20.484;2024-03-29T12:20:29;7.63;;;2.40;;
82806;SDS011;72563;44.816;20.484;2024-03-29T12:22:55;6.30;;;1.80;;
82806;SDS011;72563;44.816;20.484;2024-03-29T12:25:24;4.63;;;1.50;;
82806;SDS011;72563;44.816;20.484;2024-03-29T12:27:52;8.05;;;2.00;;
82806;SDS011;72563;44.816;20.484;2024-03-29T12:30:18;7.00;;;1.70;;
82806;SDS011;72563;44.816;20.484;2024-03-29T12:32:43;5.15;;;1.45;;
82806;SDS011;72563;44.816;20.484;2024-03-29T12:35:13;7.53;;;2.08;;
82806;SDS011;72563;44.816;20.484;2024-03-29T12:37:47;6.43;;;1.58;;
82806;SDS011;72563;44.816;20.484;2024-03-29T12:40:15;5.35;;;1.33;;
82806;SDS011;72563;44.816;20.484;2024-03-29T12:42:50;6.95;;;2.08;;
82806;SDS011;72563;44.816;20.484;2024-03-29T12:45:17;5.35;;;1.55;;
82806;SDS011;72563;44.816;20.484;2024-03-29T12:47:47;5.93;;;1.60;;
82806;SDS011;72563;44.816;20.484;2024-03-29T12:50:27;7.22;;;2.08;;
82806;SDS011;72563;44.816;20.484;2024-03-29T12:52:57;8.70;;;2.08;;
82806;SDS011;72563;44.816;20.484;2024-03-29T12:55:24;5.68;;;1.65;;
82806;SDS011;72563;44.816;20.484;2024-03-29T12:57:55;6.20;;;1.70;;
82806;SDS011;72563;44.816;20.484;2024-03-29T13:00:21;7.28;;;1.70;;
82806;SDS011;72563;44.816;20.484;2024-03-29T13:02:47;5.45;;;1.80;;
82806;SDS011;72563;44.816;20.484;2024-03-29T13:05:13;6.65;;;2.00;;
82806;SDS011;72563;44.816;20.484;2024-03-29T13:07:38;5.95;;;2.10;;
82806;SDS011;72563;44.816;20.484;2024-03-29T13:10:04;6.40;;;1.80;;
82806;SDS011;72563;44.816;20.484;2024-03-29T13:12:59;6.40;;;1.73;;
82806;SDS011;72563;44.816;20.484;2024-03-29T13:15:26;5.25;;;1.42;;
82806;SDS011;72563;44.816;20.484;2024-03-29T13:17:52;6.45;;;1.60;;
82806;SDS011;72563;44.816;20.484;2024-03-29T13:20:19;6.28;;;1.80;;
82806;SDS011;72563;44.816;20.484;2024-03-29T13:22:47;6.53;;;1.67;;
82806;SDS011;72563;44.816;20.484;2024-03-29T13:25:17;6.95;;;2.05;;
82806;SDS011;72563;44.816;20.484;2024-03-29T13:27:45;5.10;;;1.50;;
82806;SDS011;72563;44.816;20.484;2024-03-29T13:30:12;4.55;;;1.55;;
82806;SDS011;72563;44.816;20.484;2024-03-29T13:32:40;5.65;;;1.77;;
82806;SDS011;72563;44.816;20.484;2024-03-29T13:35:08;5.70;;;1.40;;
82806;SDS011;72563;44.816;20.484;2024-03-29T13:37:35;6.97;;;2.50;;
82806;SDS011;72563;44.816;20.484;2024-03-29T13:40:02;5.05;;;1.77;;
82806;SDS011;72563;44.816;20.484;2024-03-29T13:42:29;7.00;;;2.00;;
82806;SDS011;72563;44.816;20.484;2024-03-29T13:47:21;10.27;;;2.25;;
82806;SDS011;72563;44.816;20.484;2024-03-29T13:49:47;7.22;;;2.15;;
82806;SDS011;72563;44.816;20.484;2024-03-29T13:52:17;8.18;;;2.20;;
82806;SDS011;72563;44.816;20.484;2024-03-29T13:54:44;7.15;;;2.40;;
82806;SDS011;72563;44.816;20.484;2024-03-29T13:57:12;9.73;;;2.50;;
82806;SDS011;72563;44.816;20.484;2024-03-29T13:59:38;7.90;;;2.40;;
82806;SDS011;72563;44.816;20.484;2024-03-29T14:02:08;6.65;;;2.38;;
82806;SDS011;72563;44.816;20.484;2024-03-29T14:04:36;7.78;;;3.72;;
82806;SDS011;72563;44.816;20.484;2024-03-29T14:07:02;10.50;;;3.35;;
82806;SDS011;72563;44.816;20.484;2024-03-29T14:09:28;14.25;;;4.63;;
82806;SDS011;72563;44.816;20.484;2024-03-29T14:11:54;7.63;;;2.80;;
82806;SDS011;72563;44.816;20.484;2024-03-29T14:14:20;7.05;;;1.95;;
82806;SDS011;72563;44.816;20.484;2024-03-29T14:16:46;6.88;;;2.30;;
82806;SDS011;72563;44.816;20.484;2024-03-29T14:19:12;7.88;;;1.90;;
82806;SDS011;72563;44.816;20.484;2024-03-29T14:21:41;8.05;;;2.80;;
82806;SDS011;72563;44.816;20.484;2024-03-29T14:24:07;8.30;;;2.40;;
82806;SDS011;72563;44.816;20.484;2024-03-29T14:26:32;7.47;;;2.17;;
82806;SDS011;72563;44.816;20.484;2024-03-29T14:28:58;9.60;;;2.15;;
82806;SDS011;72563;44.816;20.484;2024-03-29T14:31:24;6.10;;;2.67;;
82806;SDS011;72563;44.816;20.484;2024-03-29T14:33:49;6.60;;;2.13;;
82806;SDS011;72563;44.816;20.484;2024-03-29T14:36:15;6.35;;;2.47;;
82806;SDS011;72563;44.816;20.484;2024-03-29T14:38:45;6.25;;;2.17;;
82806;SDS011;72563;44.816;20.484;2024-03-29T14:41:11;9.00;;;2.70;;
82806;SDS011;72563;44.816;20.484;2024-03-29T14:43:36;8.57;;;3.00;;
82806;SDS011;72563;44.816;20.484;2024-03-29T14:46:02;8.82;;;2.05;;
82806;SDS011;72563;44.816;20.484;2024-03-29T14:48:29;7.90;;;1.60;;
82806;SDS011;72563;44.816;20.484;2024-03-29T14:50:54;7.53;;;1.63;;
82806;SDS011;72563;44.816;20.484;2024-03-29T14:53:23;6.60;;;2.13;;
82806;SDS011;72563;44.816;20.484;2024-03-29T14:55:48;6.63;;;2.10;;
82806;SDS011;72563;44.816;20.484;2024-03-29T14:58:14;6.88;;;2.13;;